Herzlich willkommen!

Am freundlichen Bodensee-Flugplatz zwischen Schwarzwald, Rhein und Alpen.

Aktuelles

06.10.2019
Winterpause
NOTAMs Q) LSAS/QFAAP/IV/NBO /A /000/999/4741N00908E A) EDTZ B) 19/12/16 00:00 C) 20/01/30 23:59 E) AD PPR +49 (0) 1727411981.
— Flugleitung EDTZ

Live am Platz

Die Bilder unserer Webcams werden alle 5 Minuten aktualisiert.

Sonnenaufgang:

05:48 UTC / 07:48 Lokal

Sonnenuntergang:

16:28 UTC / 18:28 Lokal

METAR (20.10.2019 19:50 UTC):

EDNY 201950Z 07004KT 020V130 CAVOK 12/11 Q1009
VFR

TAF (20.10.2019 17:00 UTC):

TAF EDNY 201700Z 2018/2118 04005KT CAVOK TEMPO 2103/2107 4000 BR BKN004 TEMPO 2110/2116 25005KT

Alle Angaben unverbindlich und ohne Gewähr. Zeiten genähert.

Für den Verkehrslandeplatz Konstanz werden keine offiziellen Wetterinformationen ausgegeben. Daher werden zur Orientierung Daten des nahegelegenen Flughafens Friedrichshafen dargestellt.

Flugwetterdaten zur Verfügung gestellt von wippich.aero.